Terminal Aerodrome Forecast
Issued by NWS

Home | Current Version | Previous Version | Graphics & Text | Print | Product List | Glossary On
Versions: 1 2 3 4 5 6 7 8 9 10 11 12 13 14 15 16 17 18 19 20 21 22 23 24 25 26 27 28 29 30 31 32 33 34 35 36
000
FTUS43 KGRB 271128
TAFRHI
TAF
KRHI 271128Z 2712/2812 36008KT 4SM -FZRASNPL SCT005 OVC010
      TEMPO 2712/2714 2SM -SN BR BKN005
     FM271400 32010G15KT 1 1/2SM -SNPL SCT005 OVC009
      TEMPO 2714/2717 1/2SM SN BKN005
     FM271800 30011G17KT 3SM -SN OVC009
     FM272000 27009KT 6SM -FZDZSN OVC011
     FM280400 25008KT P6SM BKN009
     FM280800 25006KT P6SM BKN011=

USA.gov is the U.S. government's official web portal to all federal, state and local government web resources and services.